sensor_id;sensor_type;location;lat;lon;timestamp;P1;durP1;ratioP1;P2;durP2;ratioP2
34876;SDS011;21086;44.780;17.194;2022-08-11T00:01:57;5.80;;;4.05;;
34876;SDS011;21086;44.780;17.194;2022-08-11T00:04:27;4.30;;;3.20;;
34876;SDS011;21086;44.780;17.194;2022-08-11T00:07:02;4.07;;;3.53;;
34876;SDS011;21086;44.780;17.194;2022-08-11T00:09:35;4.45;;;3.90;;
34876;SDS011;21086;44.780;17.194;2022-08-11T00:12:10;4.20;;;3.58;;
34876;SDS011;21086;44.780;17.194;2022-08-11T00:14:40;5.72;;;3.75;;
34876;SDS011;21086;44.780;17.194;2022-08-11T00:17:09;6.72;;;3.58;;
34876;SDS011;21086;44.780;17.194;2022-08-11T00:19:39;3.80;;;3.50;;
34876;SDS011;21086;44.780;17.194;2022-08-11T00:22:31;3.38;;;3.08;;
34876;SDS011;21086;44.780;17.194;2022-08-11T00:25:00;6.20;;;3.53;;
34876;SDS011;21086;44.780;17.194;2022-08-11T00:27:37;4.00;;;3.00;;
34876;SDS011;21086;44.780;17.194;2022-08-11T00:30:09;5.80;;;3.35;;
34876;SDS011;21086;44.780;17.194;2022-08-11T00:32:38;4.88;;;3.60;;
34876;SDS011;21086;44.780;17.194;2022-08-11T00:35:07;6.72;;;3.55;;
34876;SDS011;21086;44.780;17.194;2022-08-11T00:38:00;7.18;;;3.17;;
34876;SDS011;21086;44.780;17.194;2022-08-11T00:40:35;5.40;;;3.30;;
34876;SDS011;21086;44.780;17.194;2022-08-11T00:48:37;8.07;;;3.08;;
34876;SDS011;21086;44.780;17.194;2022-08-11T00:51:18;3.85;;;3.40;;
34876;SDS011;21086;44.780;17.194;2022-08-11T00:54:30;5.00;;;3.50;;
34876;SDS011;21086;44.780;17.194;2022-08-11T01:02:44;4.63;;;3.55;;
34876;SDS011;21086;44.780;17.194;2022-08-11T01:14:04;7.47;;;3.83;;
34876;SDS011;21086;44.780;17.194;2022-08-11T01:31:45;6.50;;;3.67;;
34876;SDS011;21086;44.780;17.194;2022-08-11T01:48:38;5.43;;;3.03;;
34876;SDS011;21086;44.780;17.194;2022-08-11T01:56:32;5.82;;;3.35;;
34876;SDS011;21086;44.780;17.194;2022-08-11T02:01:53;4.28;;;2.88;;
34876;SDS011;21086;44.780;17.194;2022-08-11T02:05:02;3.67;;;2.90;;
34876;SDS011;21086;44.780;17.194;2022-08-11T02:18:52;3.60;;;2.53;;
34876;SDS011;21086;44.780;17.194;2022-08-11T02:21:46;4.75;;;3.25;;
34876;SDS011;21086;44.780;17.194;2022-08-11T02:24:54;3.72;;;3.20;;
34876;SDS011;21086;44.780;17.194;2022-08-11T02:27:34;4.25;;;3.03;;
34876;SDS011;21086;44.780;17.194;2022-08-11T02:30:08;5.97;;;4.10;;
34876;SDS011;21086;44.780;17.194;2022-08-11T02:38:39;5.93;;;3.47;;
34876;SDS011;21086;44.780;17.194;2022-08-11T02:49:39;7.93;;;3.28;;
34876;SDS011;21086;44.780;17.194;2022-08-11T02:52:54;9.70;;;4.90;;
34876;SDS011;21086;44.780;17.194;2022-08-11T02:58:41;12.77;;;6.38;;
34876;SDS011;21086;44.780;17.194;2022-08-11T03:01:44;10.77;;;6.57;;
34876;SDS011;21086;44.780;17.194;2022-08-11T03:13:00;11.65;;;6.13;;
34876;SDS011;21086;44.780;17.194;2022-08-11T03:16:23;8.82;;;6.18;;
34876;SDS011;21086;44.780;17.194;2022-08-11T03:19:14;6.40;;;5.40;;
34876;SDS011;21086;44.780;17.194;2022-08-11T03:21:53;7.85;;;4.97;;
34876;SDS011;21086;44.780;17.194;2022-08-11T03:27:40;10.32;;;4.65;;
34876;SDS011;21086;44.780;17.194;2022-08-11T03:30:34;7.97;;;4.32;;
34876;SDS011;21086;44.780;17.194;2022-08-11T03:33:25;6.40;;;5.00;;
34876;SDS011;21086;44.780;17.194;2022-08-11T03:36:15;9.45;;;5.97;;
34876;SDS011;21086;44.780;17.194;2022-08-11T03:45:20;5.00;;;3.20;;
34876;SDS011;21086;44.780;17.194;2022-08-11T03:59:14;4.00;;;3.05;;
34876;SDS011;21086;44.780;17.194;2022-08-11T04:08:14;5.32;;;3.47;;
34876;SDS011;21086;44.780;17.194;2022-08-11T04:14:18;3.85;;;3.10;;
34876;SDS011;21086;44.780;17.194;2022-08-11T04:29:13;5.25;;;3.10;;
34876;SDS011;21086;44.780;17.194;2022-08-11T04:37:25;5.10;;;3.10;;
34876;SDS011;21086;44.780;17.194;2022-08-11T04:43:01;3.60;;;3.03;;
34876;SDS011;21086;44.780;17.194;2022-08-11T04:46:05;5.38;;;3.13;;
34876;SDS011;21086;44.780;17.194;2022-08-11T04:58:54;4.22;;;2.70;;
34876;SDS011;21086;44.780;17.194;2022-08-11T05:04:50;3.47;;;2.60;;
34876;SDS011;21086;44.780;17.194;2022-08-11T05:17:10;3.55;;;2.58;;
34876;SDS011;21086;44.780;17.194;2022-08-11T05:19:58;4.03;;;2.22;;
34876;SDS011;21086;44.780;17.194;2022-08-11T05:22:47;4.57;;;2.30;;
34876;SDS011;21086;44.780;17.194;2022-08-11T05:25:34;7.38;;;2.05;;
34876;SDS011;21086;44.780;17.194;2022-08-11T05:29:01;6.30;;;2.35;;
34876;SDS011;21086;44.780;17.194;2022-08-11T05:31:54;4.22;;;2.70;;
34876;SDS011;21086;44.780;17.194;2022-08-11T05:34:44;3.75;;;2.58;;
34876;SDS011;21086;44.780;17.194;2022-08-11T05:43:01;6.25;;;2.38;;
34876;SDS011;21086;44.780;17.194;2022-08-11T05:45:58;4.03;;;2.33;;
34876;SDS011;21086;44.780;17.194;2022-08-11T05:48:47;2.72;;;2.30;;
34876;SDS011;21086;44.780;17.194;2022-08-11T05:51:34;4.57;;;2.40;;
34876;SDS011;21086;44.780;17.194;2022-08-11T05:54:37;2.70;;;2.17;;
34876;SDS011;21086;44.780;17.194;2022-08-11T05:57:32;5.95;;;2.15;;
34876;SDS011;21086;44.780;17.194;2022-08-11T06:00:16;2.90;;;1.98;;
34876;SDS011;21086;44.780;17.194;2022-08-11T06:02:45;3.33;;;2.13;;
34876;SDS011;21086;44.780;17.194;2022-08-11T06:05:15;4.90;;;1.80;;
34876;SDS011;21086;44.780;17.194;2022-08-11T06:07:44;4.03;;;2.15;;
34876;SDS011;21086;44.780;17.194;2022-08-11T06:13:15;5.32;;;2.30;;
34876;SDS011;21086;44.780;17.194;2022-08-11T06:15:46;2.58;;;2.38;;
34876;SDS011;21086;44.780;17.194;2022-08-11T06:18:16;3.25;;;2.42;;
34876;SDS011;21086;44.780;17.194;2022-08-11T06:20:46;5.00;;;2.53;;
34876;SDS011;21086;44.780;17.194;2022-08-11T06:23:16;3.83;;;2.47;;
34876;SDS011;21086;44.780;17.194;2022-08-11T06:25:45;4.28;;;3.30;;
34876;SDS011;21086;44.780;17.194;2022-08-11T06:28:13;6.05;;;3.53;;
34876;SDS011;21086;44.780;17.194;2022-08-11T06:30:46;3.75;;;3.33;;
34876;SDS011;21086;44.780;17.194;2022-08-11T06:33:15;5.65;;;3.60;;
34876;SDS011;21086;44.780;17.194;2022-08-11T06:41:20;5.03;;;3.53;;
34876;SDS011;21086;44.780;17.194;2022-08-11T06:46:41;4.63;;;4.07;;
34876;SDS011;21086;44.780;17.194;2022-08-11T06:49:14;8.85;;;4.40;;
34876;SDS011;21086;44.780;17.194;2022-08-11T06:52:03;6.03;;;4.68;;
34876;SDS011;21086;44.780;17.194;2022-08-11T06:54:59;6.88;;;5.45;;
34876;SDS011;21086;44.780;17.194;2022-08-11T06:57:35;6.00;;;4.60;;
34876;SDS011;21086;44.780;17.194;2022-08-11T07:00:21;6.93;;;4.90;;
34876;SDS011;21086;44.780;17.194;2022-08-11T07:03:05;7.78;;;5.45;;
34876;SDS011;21086;44.780;17.194;2022-08-11T07:05:52;7.15;;;5.97;;
34876;SDS011;21086;44.780;17.194;2022-08-11T07:11:48;10.73;;;5.55;;
34876;SDS011;21086;44.780;17.194;2022-08-11T07:14:37;7.05;;;6.10;;
34876;SDS011;21086;44.780;17.194;2022-08-11T07:17:31;8.85;;;6.28;;
34876;SDS011;21086;44.780;17.194;2022-08-11T07:20:14;7.53;;;5.28;;
34876;SDS011;21086;44.780;17.194;2022-08-11T07:23:02;16.00;;;6.03;;
34876;SDS011;21086;44.780;17.194;2022-08-11T07:25:51;8.20;;;5.57;;
34876;SDS011;21086;44.780;17.194;2022-08-11T07:28:44;7.45;;;5.20;;
34876;SDS011;21086;44.780;17.194;2022-08-11T07:31:30;7.35;;;4.90;;
34876;SDS011;21086;44.780;17.194;2022-08-11T07:36:51;7.93;;;5.40;;
34876;SDS011;21086;44.780;17.194;2022-08-11T07:39:24;14.13;;;4.70;;
34876;SDS011;21086;44.780;17.194;2022-08-11T07:41:53;8.60;;;4.55;;
34876;SDS011;21086;44.780;17.194;2022-08-11T07:44:22;7.75;;;4.50;;
34876;SDS011;21086;44.780;17.194;2022-08-11T07:47:00;5.53;;;4.53;;
34876;SDS011;21086;44.780;17.194;2022-08-11T07:49:46;11.35;;;4.45;;
34876;SDS011;21086;44.780;17.194;2022-08-11T07:52:34;6.15;;;3.58;;
34876;SDS011;21086;44.780;17.194;2022-08-11T07:55:07;7.63;;;4.18;;
34876;SDS011;21086;44.780;17.194;2022-08-11T07:57:39;7.68;;;4.07;;
34876;SDS011;21086;44.780;17.194;2022-08-11T08:00:46;4.95;;;3.58;;
34876;SDS011;21086;44.780;17.194;2022-08-11T08:03:47;4.57;;;2.85;;
34876;SDS011;21086;44.780;17.194;2022-08-11T08:06:34;4.00;;;2.67;;
34876;SDS011;21086;44.780;17.194;2022-08-11T08:09:21;5.55;;;3.05;;
34876;SDS011;21086;44.780;17.194;2022-08-11T08:12:08;6.13;;;2.70;;
34876;SDS011;21086;44.780;17.194;2022-08-11T08:14:54;3.80;;;3.08;;
34876;SDS011;21086;44.780;17.194;2022-08-11T08:17:41;3.85;;;3.10;;
34876;SDS011;21086;44.780;17.194;2022-08-11T08:20:41;5.13;;;3.70;;
34876;SDS011;21086;44.780;17.194;2022-08-11T08:23:11;5.65;;;2.80;;
34876;SDS011;21086;44.780;17.194;2022-08-11T08:25:39;4.93;;;3.00;;
34876;SDS011;21086;44.780;17.194;2022-08-11T08:28:09;4.00;;;2.90;;
34876;SDS011;21086;44.780;17.194;2022-08-11T08:30:46;3.42;;;2.80;;
34876;SDS011;21086;44.780;17.194;2022-08-11T08:33:22;5.47;;;2.78;;
34876;SDS011;21086;44.780;17.194;2022-08-11T08:35:58;5.78;;;2.80;;
34876;SDS011;21086;44.780;17.194;2022-08-11T08:38:42;3.70;;;2.47;;
34876;SDS011;21086;44.780;17.194;2022-08-11T08:41:18;8.90;;;2.85;;
34876;SDS011;21086;44.780;17.194;2022-08-11T08:43:49;6.55;;;2.83;;
34876;SDS011;21086;44.780;17.194;2022-08-11T08:46:24;3.90;;;2.40;;
34876;SDS011;21086;44.780;17.194;2022-08-11T08:48:55;6.50;;;3.47;;
34876;SDS011;21086;44.780;17.194;2022-08-11T08:51:26;4.40;;;2.60;;
34876;SDS011;21086;44.780;17.194;2022-08-11T08:54:28;3.30;;;2.70;;
34876;SDS011;21086;44.780;17.194;2022-08-11T08:56:59;3.42;;;2.42;;
34876;SDS011;21086;44.780;17.194;2022-08-11T08:59:30;4.40;;;2.10;;
34876;SDS011;21086;44.780;17.194;2022-08-11T09:02:19;4.03;;;2.47;;
34876;SDS011;21086;44.780;17.194;2022-08-11T09:05:00;3.95;;;2.25;;
34876;SDS011;21086;44.780;17.194;2022-08-11T09:07:29;4.20;;;2.42;;
34876;SDS011;21086;44.780;17.194;2022-08-11T09:10:05;3.33;;;2.33;;
34876;SDS011;21086;44.780;17.194;2022-08-11T09:12:34;6.60;;;2.40;;
34876;SDS011;21086;44.780;17.194;2022-08-11T09:15:04;3.75;;;2.10;;
34876;SDS011;21086;44.780;17.194;2022-08-11T09:17:35;3.88;;;2.00;;
34876;SDS011;21086;44.780;17.194;2022-08-11T09:20:07;6.75;;;2.30;;
34876;SDS011;21086;44.780;17.194;2022-08-11T09:22:40;7.60;;;2.78;;
34876;SDS011;21086;44.780;17.194;2022-08-11T09:25:52;3.13;;;1.88;;
34876;SDS011;21086;44.780;17.194;2022-08-11T09:28:41;4.63;;;1.98;;
34876;SDS011;21086;44.780;17.194;2022-08-11T09:31:09;3.90;;;2.70;;
34876;SDS011;21086;44.780;17.194;2022-08-11T09:33:39;3.90;;;2.45;;
34876;SDS011;21086;44.780;17.194;2022-08-11T09:36:08;2.95;;;2.30;;
34876;SDS011;21086;44.780;17.194;2022-08-11T09:38:56;4.30;;;2.05;;
34876;SDS011;21086;44.780;17.194;2022-08-11T09:41:43;2.38;;;2.03;;
34876;SDS011;21086;44.780;17.194;2022-08-11T09:44:28;3.95;;;2.10;;
34876;SDS011;21086;44.780;17.194;2022-08-11T09:47:17;3.20;;;2.25;;
34876;SDS011;21086;44.780;17.194;2022-08-11T09:49:45;3.33;;;2.33;;
34876;SDS011;21086;44.780;17.194;2022-08-11T09:52:14;5.85;;;2.05;;
34876;SDS011;21086;44.780;17.194;2022-08-11T09:54:45;7.13;;;2.13;;
34876;SDS011;21086;44.780;17.194;2022-08-11T09:57:13;2.72;;;2.10;;
34876;SDS011;21086;44.780;17.194;2022-08-11T10:00:05;3.03;;;2.25;;
34876;SDS011;21086;44.780;17.194;2022-08-11T10:02:42;4.70;;;2.20;;
34876;SDS011;21086;44.780;17.194;2022-08-11T10:05:16;6.75;;;1.98;;
34876;SDS011;21086;44.780;17.194;2022-08-11T10:08:03;3.10;;;1.80;;
34876;SDS011;21086;44.780;17.194;2022-08-11T10:10:36;2.60;;;2.20;;
34876;SDS011;21086;44.780;17.194;2022-08-11T10:13:09;2.20;;;1.88;;
34876;SDS011;21086;44.780;17.194;2022-08-11T10:16:01;2.28;;;1.70;;
34876;SDS011;21086;44.780;17.194;2022-08-11T10:18:42;3.83;;;1.80;;
34876;SDS011;21086;44.780;17.194;2022-08-11T10:23:59;3.20;;;1.95;;
34876;SDS011;21086;44.780;17.194;2022-08-11T10:26:47;3.35;;;1.77;;
34876;SDS011;21086;44.780;17.194;2022-08-11T10:29:30;2.97;;;1.90;;
34876;SDS011;21086;44.780;17.194;2022-08-11T10:32:26;2.80;;;1.58;;
34876;SDS011;21086;44.780;17.194;2022-08-11T10:35:28;1.85;;;1.23;;
34876;SDS011;21086;44.780;17.194;2022-08-11T10:37:58;1.88;;;1.70;;
34876;SDS011;21086;44.780;17.194;2022-08-11T10:40:35;3.70;;;1.65;;
34876;SDS011;21086;44.780;17.194;2022-08-11T10:43:05;2.20;;;1.60;;
34876;SDS011;21086;44.780;17.194;2022-08-11T10:45:43;2.10;;;1.40;;
34876;SDS011;21086;44.780;17.194;2022-08-11T10:48:36;3.47;;;1.60;;
34876;SDS011;21086;44.780;17.194;2022-08-11T10:51:04;3.28;;;1.58;;
34876;SDS011;21086;44.780;17.194;2022-08-11T10:53:46;1.90;;;1.35;;
34876;SDS011;21086;44.780;17.194;2022-08-11T10:56:38;1.25;;;1.10;;
34876;SDS011;21086;44.780;17.194;2022-08-11T10:59:25;2.42;;;1.13;;
34876;SDS011;21086;44.780;17.194;2022-08-11T11:01:53;1.63;;;1.25;;
34876;SDS011;21086;44.780;17.194;2022-08-11T11:07:27;2.38;;;1.15;;
34876;SDS011;21086;44.780;17.194;2022-08-11T11:10:25;2.05;;;1.10;;
34876;SDS011;21086;44.780;17.194;2022-08-11T11:12:53;2.95;;;1.40;;
34876;SDS011;21086;44.780;17.194;2022-08-11T11:15:43;2.38;;;1.40;;
34876;SDS011;21086;44.780;17.194;2022-08-11T11:18:31;1.33;;;1.00;;
34876;SDS011;21086;44.780;17.194;2022-08-11T11:21:04;3.15;;;1.17;;
34876;SDS011;21086;44.780;17.194;2022-08-11T11:37:23;2.58;;;1.17;;
34876;SDS011;21086;44.780;17.194;2022-08-11T11:39:52;1.10;;;0.80;;
34876;SDS011;21086;44.780;17.194;2022-08-11T11:42:20;1.50;;;1.00;;
34876;SDS011;21086;44.780;17.194;2022-08-11T11:44:48;1.80;;;0.80;;
34876;SDS011;21086;44.780;17.194;2022-08-11T11:47:21;1.90;;;0.90;;
34876;SDS011;21086;44.780;17.194;2022-08-11T11:49:48;2.10;;;1.10;;
34876;SDS011;21086;44.780;17.194;2022-08-11T11:52:17;6.80;;;1.00;;
34876;SDS011;21086;44.780;17.194;2022-08-11T11:54:46;2.60;;;1.23;;
34876;SDS011;21086;44.780;17.194;2022-08-11T11:57:16;2.83;;;1.38;;
34876;SDS011;21086;44.780;17.194;2022-08-11T12:00:04;1.00;;;0.90;;
34876;SDS011;21086;44.780;17.194;2022-08-11T12:03:00;3.50;;;0.98;;
34876;SDS011;21086;44.780;17.194;2022-08-11T12:05:31;1.08;;;0.80;;
34876;SDS011;21086;44.780;17.194;2022-08-11T12:08:00;1.50;;;0.90;;
34876;SDS011;21086;44.780;17.194;2022-08-11T12:10:54;1.02;;;0.77;;
34876;SDS011;21086;44.780;17.194;2022-08-11T12:14:02;1.33;;;0.82;;
34876;SDS011;21086;44.780;17.194;2022-08-11T12:16:36;0.98;;;0.73;;
34876;SDS011;21086;44.780;17.194;2022-08-11T12:19:07;2.42;;;0.65;;
34876;SDS011;21086;44.780;17.194;2022-08-11T12:21:38;1.52;;;0.70;;
34876;SDS011;21086;44.780;17.194;2022-08-11T12:24:27;0.75;;;0.52;;
34876;SDS011;21086;44.780;17.194;2022-08-11T12:27:14;1.95;;;0.80;;
34876;SDS011;21086;44.780;17.194;2022-08-11T12:29:51;1.27;;;0.65;;
34876;SDS011;21086;44.780;17.194;2022-08-11T12:32:22;1.63;;;0.90;;
34876;SDS011;21086;44.780;17.194;2022-08-11T12:34:51;1.50;;;0.65;;
34876;SDS011;21086;44.780;17.194;2022-08-11T12:37:21;3.08;;;0.75;;
34876;SDS011;21086;44.780;17.194;2022-08-11T12:40:04;2.25;;;0.60;;
34876;SDS011;21086;44.780;17.194;2022-08-11T12:43:16;1.60;;;0.77;;
34876;SDS011;21086;44.780;17.194;2022-08-11T12:46:07;0.70;;;0.60;;
34876;SDS011;21086;44.780;17.194;2022-08-11T12:48:57;2.22;;;0.60;;
34876;SDS011;21086;44.780;17.194;2022-08-11T12:51:49;1.15;;;0.60;;
34876;SDS011;21086;44.780;17.194;2022-08-11T12:54:43;1.48;;;0.60;;
34876;SDS011;21086;44.780;17.194;2022-08-11T12:57:29;0.75;;;0.55;;
34876;SDS011;21086;44.780;17.194;2022-08-11T13:00:22;2.80;;;0.60;;
34876;SDS011;21086;44.780;17.194;2022-08-11T13:03:10;0.85;;;0.47;;
34876;SDS011;21086;44.780;17.194;2022-08-11T13:05:59;0.68;;;0.30;;
34876;SDS011;21086;44.780;17.194;2022-08-11T13:08:28;1.77;;;0.50;;
34876;SDS011;21086;44.780;17.194;2022-08-11T13:11:01;1.95;;;0.60;;
34876;SDS011;21086;44.780;17.194;2022-08-11T13:13:49;1.50;;;0.57;;
34876;SDS011;21086;44.780;17.194;2022-08-11T13:16:32;1.92;;;0.47;;
34876;SDS011;21086;44.780;17.194;2022-08-11T13:19:21;0.50;;;0.40;;
34876;SDS011;21086;44.780;17.194;2022-08-11T13:21:49;1.17;;;0.35;;
34876;SDS011;21086;44.780;17.194;2022-08-11T13:24:19;3.35;;;0.40;;
34876;SDS011;21086;44.780;17.194;2022-08-11T13:26:49;0.98;;;0.50;;
34876;SDS011;21086;44.780;17.194;2022-08-11T13:29:17;0.98;;;0.70;;
34876;SDS011;21086;44.780;17.194;2022-08-11T13:31:45;1.83;;;0.43;;
34876;SDS011;21086;44.780;17.194;2022-08-11T13:34:14;0.57;;;0.40;;
34876;SDS011;21086;44.780;17.194;2022-08-11T13:36:42;0.47;;;0.30;;
34876;SDS011;21086;44.780;17.194;2022-08-11T13:39:10;0.98;;;0.50;;
34876;SDS011;21086;44.780;17.194;2022-08-11T13:41:39;2.63;;;0.70;;
34876;SDS011;21086;44.780;17.194;2022-08-11T13:44:10;2.42;;;0.52;;
34876;SDS011;21086;44.780;17.194;2022-08-11T13:46:43;1.30;;;0.50;;
34876;SDS011;21086;44.780;17.194;2022-08-11T13:49:14;0.77;;;0.50;;
34876;SDS011;21086;44.780;17.194;2022-08-11T13:51:42;2.60;;;0.50;;
34876;SDS011;21086;44.780;17.194;2022-08-11T13:54:11;2.85;;;0.50;;
34876;SDS011;21086;44.780;17.194;2022-08-11T13:56:46;1.17;;;0.60;;
34876;SDS011;21086;44.780;17.194;2022-08-11T13:59:16;1.38;;;0.63;;
34876;SDS011;21086;44.780;17.194;2022-08-11T14:02:00;2.80;;;0.85;;
34876;SDS011;21086;44.780;17.194;2022-08-11T14:04:55;0.93;;;0.45;;
34876;SDS011;21086;44.780;17.194;2022-08-11T14:07:52;1.23;;;0.50;;
34876;SDS011;21086;44.780;17.194;2022-08-11T14:10:26;0.95;;;0.40;;
34876;SDS011;21086;44.780;17.194;2022-08-11T14:13:03;1.10;;;0.50;;
34876;SDS011;21086;44.780;17.194;2022-08-11T14:16:12;0.75;;;0.40;;
34876;SDS011;21086;44.780;17.194;2022-08-11T14:18:44;1.85;;;0.35;;
34876;SDS011;21086;44.780;17.194;2022-08-11T14:21:16;2.30;;;0.57;;
34876;SDS011;21086;44.780;17.194;2022-08-11T14:24:02;1.48;;;0.70;;
34876;SDS011;21086;44.780;17.194;2022-08-11T14:26:30;2.03;;;0.40;;
34876;SDS011;21086;44.780;17.194;2022-08-11T14:29:08;1.45;;;0.50;;
34876;SDS011;21086;44.780;17.194;2022-08-11T14:31:45;1.08;;;0.50;;
34876;SDS011;21086;44.780;17.194;2022-08-11T14:34:21;1.02;;;0.43;;
34876;SDS011;21086;44.780;17.194;2022-08-11T14:36:51;3.22;;;0.52;;
34876;SDS011;21086;44.780;17.194;2022-08-11T14:39:25;0.90;;;0.47;;
34876;SDS011;21086;44.780;17.194;2022-08-11T14:41:58;2.15;;;0.40;;
34876;SDS011;21086;44.780;17.194;2022-08-11T14:44:56;1.13;;;0.50;;
34876;SDS011;21086;44.780;17.194;2022-08-11T14:47:49;2.78;;;0.60;;
34876;SDS011;21086;44.780;17.194;2022-08-11T14:50:18;1.40;;;0.40;;
34876;SDS011;21086;44.780;17.194;2022-08-11T14:52:49;0.90;;;0.40;;
34876;SDS011;21086;44.780;17.194;2022-08-11T14:55:20;0.60;;;0.30;;
34876;SDS011;21086;44.780;17.194;2022-08-11T14:58:09;1.02;;;0.50;;
34876;SDS011;21086;44.780;17.194;2022-08-11T15:00:38;1.23;;;0.60;;
34876;SDS011;21086;44.780;17.194;2022-08-11T15:03:07;0.70;;;0.50;;
34876;SDS011;21086;44.780;17.194;2022-08-11T15:05:43;0.60;;;0.40;;
34876;SDS011;21086;44.780;17.194;2022-08-11T15:08:23;1.38;;;0.38;;
34876;SDS011;21086;44.780;17.194;2022-08-11T15:11:17;0.73;;;0.50;;
34876;SDS011;21086;44.780;17.194;2022-08-11T15:14:05;0.45;;;0.40;;
34876;SDS011;21086;44.780;17.194;2022-08-11T15:16:39;3.53;;;0.82;;
34876;SDS011;21086;44.780;17.194;2022-08-11T15:19:27;0.60;;;0.40;;
34876;SDS011;21086;44.780;17.194;2022-08-11T15:22:06;3.17;;;0.57;;
34876;SDS011;21086;44.780;17.194;2022-08-11T15:24:55;3.55;;;0.55;;
34876;SDS011;21086;44.780;17.194;2022-08-11T15:27:23;6.60;;;0.60;;
34876;SDS011;21086;44.780;17.194;2022-08-11T15:30:11;2.33;;;0.40;;
34876;SDS011;21086;44.780;17.194;2022-08-11T15:33:03;2.72;;;0.32;;
34876;SDS011;21086;44.780;17.194;2022-08-11T15:35:51;2.03;;;0.63;;
34876;SDS011;21086;44.780;17.194;2022-08-11T15:38:39;0.70;;;0.50;;
34876;SDS011;21086;44.780;17.194;2022-08-11T15:41:12;0.40;;;0.35;;
34876;SDS011;21086;44.780;17.194;2022-08-11T15:44:01;2.17;;;0.55;;
34876;SDS011;21086;44.780;17.194;2022-08-11T15:47:09;0.77;;;0.40;;
34876;SDS011;21086;44.780;17.194;2022-08-11T15:49:39;0.70;;;0.40;;
34876;SDS011;21086;44.780;17.194;2022-08-11T15:52:29;0.50;;;0.40;;
34876;SDS011;21086;44.780;17.194;2022-08-11T15:54:59;3.17;;;0.57;;
34876;SDS011;21086;44.780;17.194;2022-08-11T15:57:34;2.13;;;0.43;;
34876;SDS011;21086;44.780;17.194;2022-08-11T16:00:21;0.80;;;0.52;;
34876;SDS011;21086;44.780;17.194;2022-08-11T16:03:07;0.95;;;0.50;;
34876;SDS011;21086;44.780;17.194;2022-08-11T16:06:14;0.40;;;0.40;;
34876;SDS011;21086;44.780;17.194;2022-08-11T16:08:42;1.75;;;0.50;;
34876;SDS011;21086;44.780;17.194;2022-08-11T16:11:10;0.50;;;0.50;;
34876;SDS011;21086;44.780;17.194;2022-08-11T16:13:39;1.30;;;0.47;;
34876;SDS011;21086;44.780;17.194;2022-08-11T16:16:07;0.55;;;0.20;;
34876;SDS011;21086;44.780;17.194;2022-08-11T16:21:18;2.10;;;0.73;;
34876;SDS011;21086;44.780;17.194;2022-08-11T16:24:08;0.60;;;0.50;;
34876;SDS011;21086;44.780;17.194;2022-08-11T16:26:57;6.18;;;0.93;;
34876;SDS011;21086;44.780;17.194;2022-08-11T16:29:39;1.27;;;0.60;;
34876;SDS011;21086;44.780;17.194;2022-08-11T16:32:11;1.08;;;0.45;;
34876;SDS011;21086;44.780;17.194;2022-08-11T16:34:49;1.15;;;0.50;;
34876;SDS011;21086;44.780;17.194;2022-08-11T16:37:44;0.60;;;0.40;;
34876;SDS011;21086;44.780;17.194;2022-08-11T16:40:31;3.17;;;0.70;;
34876;SDS011;21086;44.780;17.194;2022-08-11T16:42:58;1.60;;;0.70;;
34876;SDS011;21086;44.780;17.194;2022-08-11T16:45:47;1.35;;;0.50;;
34876;SDS011;21086;44.780;17.194;2022-08-11T16:48:34;1.40;;;0.50;;
34876;SDS011;21086;44.780;17.194;2022-08-11T16:51:07;1.05;;;0.57;;
34876;SDS011;21086;44.780;17.194;2022-08-11T16:53:37;1.20;;;0.63;;
34876;SDS011;21086;44.780;17.194;2022-08-11T16:56:36;0.75;;;0.65;;
34876;SDS011;21086;44.780;17.194;2022-08-11T16:59:10;1.15;;;0.57;;
34876;SDS011;21086;44.780;17.194;2022-08-11T17:01:55;0.60;;;0.60;;
34876;SDS011;21086;44.780;17.194;2022-08-11T17:04:35;2.88;;;0.60;;
34876;SDS011;21086;44.780;17.194;2022-08-11T17:07:30;0.50;;;0.50;;
34876;SDS011;21086;44.780;17.194;2022-08-11T17:13:22;2.20;;;0.90;;
34876;SDS011;21086;44.780;17.194;2022-08-11T17:15:59;2.72;;;1.00;;
34876;SDS011;21086;44.780;17.194;2022-08-11T17:18:53;2.13;;;1.02;;
34876;SDS011;21086;44.780;17.194;2022-08-11T17:21:40;2.92;;;0.90;;
34876;SDS011;21086;44.780;17.194;2022-08-11T17:24:30;1.42;;;1.10;;
34876;SDS011;21086;44.780;17.194;2022-08-11T17:27:02;3.88;;;0.98;;
34876;SDS011;21086;44.780;17.194;2022-08-11T17:29:45;5.82;;;1.42;;
34876;SDS011;21086;44.780;17.194;2022-08-11T17:35:24;4.07;;;1.27;;
34876;SDS011;21086;44.780;17.194;2022-08-11T17:38:04;1.73;;;0.90;;
34876;SDS011;21086;44.780;17.194;2022-08-11T17:40:36;3.00;;;1.02;;
34876;SDS011;21086;44.780;17.194;2022-08-11T17:43:06;2.40;;;1.02;;
34876;SDS011;21086;44.780;17.194;2022-08-11T17:45:54;2.55;;;0.90;;
34876;SDS011;21086;44.780;17.194;2022-08-11T17:48:41;2.75;;;1.35;;
34876;SDS011;21086;44.780;17.194;2022-08-11T17:51:15;3.28;;;0.98;;
34876;SDS011;21086;44.780;17.194;2022-08-11T17:54:03;3.33;;;1.30;;
34876;SDS011;21086;44.780;17.194;2022-08-11T17:56:51;2.42;;;1.02;;
34876;SDS011;21086;44.780;17.194;2022-08-11T17:59:47;2.28;;;1.00;;
34876;SDS011;21086;44.780;17.194;2022-08-11T18:02:21;3.47;;;1.10;;
34876;SDS011;21086;44.780;17.194;2022-08-11T18:05:08;3.03;;;0.73;;
34876;SDS011;21086;44.780;17.194;2022-08-11T18:07:40;2.70;;;1.40;;
34876;SDS011;21086;44.780;17.194;2022-08-11T18:10:29;3.08;;;1.50;;
34876;SDS011;21086;44.780;17.194;2022-08-11T18:13:16;4.07;;;2.65;;
34876;SDS011;21086;44.780;17.194;2022-08-11T18:16:04;3.83;;;2.10;;
34876;SDS011;21086;44.780;17.194;2022-08-11T18:18:49;3.38;;;1.77;;
34876;SDS011;21086;44.780;17.194;2022-08-11T18:21:35;4.85;;;2.33;;
34876;SDS011;21086;44.780;17.194;2022-08-11T18:24:44;3.45;;;2.03;;
34876;SDS011;21086;44.780;17.194;2022-08-11T18:27:34;3.80;;;1.55;;
34876;SDS011;21086;44.780;17.194;2022-08-11T18:30:21;3.78;;;1.38;;
34876;SDS011;21086;44.780;17.194;2022-08-11T18:33:09;2.13;;;1.40;;
34876;SDS011;21086;44.780;17.194;2022-08-11T18:36:20;2.35;;;1.05;;
34876;SDS011;21086;44.780;17.194;2022-08-11T18:39:11;5.78;;;1.33;;
34876;SDS011;21086;44.780;17.194;2022-08-11T18:41:59;1.95;;;1.48;;
34876;SDS011;21086;44.780;17.194;2022-08-11T18:44:56;4.50;;;3.30;;
34876;SDS011;21086;44.780;17.194;2022-08-11T18:47:47;3.92;;;2.80;;
34876;SDS011;21086;44.780;17.194;2022-08-11T18:50:38;6.90;;;3.53;;
34876;SDS011;21086;44.780;17.194;2022-08-11T18:53:46;8.90;;;2.97;;
34876;SDS011;21086;44.780;17.194;2022-08-11T18:56:34;9.20;;;3.65;;
34876;SDS011;21086;44.780;17.194;2022-08-11T18:59:22;10.63;;;3.10;;
34876;SDS011;21086;44.780;17.194;2022-08-11T19:02:10;7.45;;;4.00;;
34876;SDS011;21086;44.780;17.194;2022-08-11T19:05:13;7.00;;;3.95;;
34876;SDS011;21086;44.780;17.194;2022-08-11T19:08:20;7.35;;;3.95;;
34876;SDS011;21086;44.780;17.194;2022-08-11T19:11:07;8.05;;;3.88;;
34876;SDS011;21086;44.780;17.194;2022-08-11T19:13:56;10.70;;;4.63;;
34876;SDS011;21086;44.780;17.194;2022-08-11T19:16:44;6.32;;;3.63;;
34876;SDS011;21086;44.780;17.194;2022-08-11T19:19:30;10.40;;;3.65;;
34876;SDS011;21086;44.780;17.194;2022-08-11T19:22:18;6.63;;;3.92;;
34876;SDS011;21086;44.780;17.194;2022-08-11T19:25:05;4.30;;;3.08;;
34876;SDS011;21086;44.780;17.194;2022-08-11T19:27:52;9.80;;;3.40;;
34876;SDS011;21086;44.780;17.194;2022-08-11T19:30:38;3.85;;;2.90;;
34876;SDS011;21086;44.780;17.194;2022-08-11T19:33:25;6.65;;;3.30;;
34876;SDS011;21086;44.780;17.194;2022-08-11T19:36:32;5.70;;;2.55;;
34876;SDS011;21086;44.780;17.194;2022-08-11T19:39:20;5.00;;;3.08;;